Time,TemperatureF,DewpointF,PressureIn,WindDirection,WindDirectionDegrees,WindSpeedMPH,WindSpeedGustMPH,Humidity,HourlyPrecipIn,Conditions,Clouds,dailyrainin,SoftwareType,DateUTC
2013-09-24 00:01:00,68.3,65.3,29.83,NNW,346,0.0,1.2,90,0.00,,,0.00,WeatherDisplay:10.37,2013-09-24 05:01:00,
2013-09-24 00:06:00,68.3,65.3,29.83,WSW,242,1.2,3.5,90,0.00,,,0.00,WeatherDisplay:10.37,2013-09-24 05:06:00,
2013-09-24 00:11:00,68.1,65.1,29.83,SSW,199,0.1,3.5,90,0.00,,,0.00,WeatherDisplay:10.37,2013-09-24 05:11:00,
2013-09-24 00:16:00,68.1,65.1,29.83,ESE,111,2.4,4.6,90,0.00,,,0.00,WeatherDisplay:10.37,2013-09-24 05:16:00,
2013-09-24 00:21:00,68.1,65.1,29.83,NNW,331,0.0,1.2,90,0.00,,,0.00,WeatherDisplay:10.37,2013-09-24 05:21:00,
2013-09-24 00:26:00,67.9,64.9,29.83,ENE,71,0.1,5.8,90,0.00,,,0.00,WeatherDisplay:10.37,2013-09-24 05:26:00,
2013-09-24 00:31:00,67.9,64.9,29.82,NE,53,0.1,1.2,90,0.00,,,0.00,WeatherDisplay:10.37,2013-09-24 05:31:00,
2013-09-24 00:36:00,67.9,65.2,29.82,West,268,0.1,5.8,91,0.00,,,0.00,WeatherDisplay:10.37,2013-09-24 05:36:00,
2013-09-24 00:41:00,67.9,65.2,29.82,NW,304,0.0,1.2,91,0.00,,,0.00,WeatherDisplay:10.37,2013-09-24 05:41:00,
2013-09-24 00:46:00,67.9,64.9,29.82,East,88,2.6,8.1,90,0.00,,,0.00,WeatherDisplay:10.37,2013-09-24 05:46:00,
2013-09-24 00:51:00,67.9,65.2,29.82,NNE,30,0.0,0.0,91,0.00,,,0.00,WeatherDisplay:10.37,2013-09-24 05:51:00,
2013-09-24 00:56:00,67.9,65.2,29.82,North,355,0.0,0.0,91,0.00,,,0.00,WeatherDisplay:10.37,2013-09-24 05:56:00,
2013-09-24 01:01:00,67.9,65.2,29.82,NNW,331,1.6,3.0,91,0.00,,,0.00,WeatherDisplay:10.37,2013-09-24 06:01:00,
2013-09-24 01:06:00,67.9,65.2,29.82,East,84,0.0,1.2,91,0.00,,,0.00,WeatherDisplay:10.37,2013-09-24 06:06:00,
2013-09-24 01:11:00,67.9,65.2,29.82,NE,50,0.0,6.9,91,0.00,,,0.00,WeatherDisplay:10.37,2013-09-24 06:11:00,
2013-09-24 01:16:00,67.9,65.2,29.82,NE,51,1.4,8.1,91,0.00,,,0.00,WeatherDisplay:10.37,2013-09-24 06:16:00,
2013-09-24 01:21:00,67.9,65.2,29.82,NNW,337,0.0,1.2,91,0.00,,,0.00,WeatherDisplay:10.37,2013-09-24 06:21:00,
2013-09-24 01:26:00,67.9,65.2,29.82,NE,54,0.7,3.5,91,0.00,,,0.00,WeatherDisplay:10.37,2013-09-24 06:26:00,
2013-09-24 01:31:00,67.9,65.2,29.81,NE,34,0.3,3.5,91,0.00,,,0.00,WeatherDisplay:10.37,2013-09-24 06:31:00,
2013-09-24 01:36:00,67.9,65.2,29.81,ENE,63,1.0,4.0,91,0.00,,,0.00,WeatherDisplay:10.37,2013-09-24 06:36:00,
2013-09-24 01:41:00,67.9,65.2,29.81,ENE,77,3.6,7.0,91,0.00,,,0.00,WeatherDisplay:10.37,2013-09-24 06:41:00,
2013-09-24 01:46:00,67.8,65.1,29.81,NE,55,2.3,2.3,91,0.00,,,0.00,WeatherDisplay:10.37,2013-09-24 06:46:00,
2013-09-24 01:51:00,67.8,65.1,29.81,East,98,0.2,6.9,91,0.00,,,0.00,WeatherDisplay:10.37,2013-09-24 06:51:00,
2013-09-24 01:56:00,67.8,65.4,29.81,NNW,336,0.0,1.0,92,0.00,,,0.00,WeatherDisplay:10.37,2013-09-24 06:56:00,
2013-09-24 02:01:00,67.8,65.4,29.81,NE,42,0.1,4.6,92,0.00,,,0.00,WeatherDisplay:10.37,2013-09-24 07:01:00,
2013-09-24 02:06:00,67.6,65.2,29.81,NE,36,0.0,0.0,92,0.00,,,0.00,WeatherDisplay:10.37,2013-09-24 07:06:00,
2013-09-24 02:11:00,67.6,65.2,29.81,ENE,66,2.5,6.9,92,0.00,,,0.00,WeatherDisplay:10.37,2013-09-24 07:11:00,
2013-09-24 02:16:00,67.6,65.2,29.81,NNE,28,0.7,3.5,92,0.00,,,0.00,WeatherDisplay:10.37,2013-09-24 07:16:00,
2013-09-24 02:21:00,67.6,65.5,29.81,ESE,104,1.6,5.8,93,0.00,,,0.00,WeatherDisplay:10.37,2013-09-24 07:21:00,
2013-09-24 02:26:00,67.6,65.5,29.81,NE,54,0.4,3.5,93,0.00,,,0.00,WeatherDisplay:10.37,2013-09-24 07:26:00,
2013-09-24 02:31:00,67.4,65.3,29.81,NE,42,0.0,3.5,93,0.00,,,0.00,WeatherDisplay:10.37,2013-09-24 07:31:00,
2013-09-24 02:36:00,67.4,65.3,29.81,NE,40,0.0,1.2,93,0.00,,,0.00,WeatherDisplay:10.37,2013-09-24 07:36:00,
2013-09-24 02:41:00,67.4,65.6,29.81,East,80,0.9,4.6,94,0.00,,,0.00,WeatherDisplay:10.37,2013-09-24 07:41:00,
2013-09-24 02:46:00,67.3,65.5,29.82,ENE,73,0.5,4.6,94,0.00,,,0.00,WeatherDisplay:10.37,2013-09-24 07:46:00,
2013-09-24 02:51:00,67.3,65.5,29.82,ENE,74,0.0,0.0,94,0.00,,,0.00,WeatherDisplay:10.37,2013-09-24 07:51:00,
2013-09-24 02:56:00,67.1,65.3,29.82,NNE,26,0.1,1.2,94,0.00,,,0.00,WeatherDisplay:10.37,2013-09-24 07:56:00,
2013-09-24 03:01:00,67.1,65.3,29.82,NNE,26,0.0,0.0,94,0.00,,,0.00,WeatherDisplay:10.37,2013-09-24 08:01:00,
2013-09-24 03:06:00,67.1,65.6,29.82,NNE,26,0.0,0.0,95,0.00,,,0.00,WeatherDisplay:10.37,2013-09-24 08:06:00,
2013-09-24 03:11:00,67.1,65.3,29.82,NE,53,0.0,3.5,94,0.00,,,0.00,WeatherDisplay:10.37,2013-09-24 08:11:00,
2013-09-24 03:16:00,67.1,65.6,29.82,North,11,0.0,3.5,95,0.00,,,0.00,WeatherDisplay:10.37,2013-09-24 08:16:00,
2013-09-24 03:21:00,66.9,65.4,29.82,NE,55,0.1,5.8,95,0.00,,,0.00,WeatherDisplay:10.37,2013-09-24 08:21:00,
2013-09-24 03:26:00,66.9,65.4,29.82,ENE,76,0.0,0.0,95,0.00,,,0.00,WeatherDisplay:10.37,2013-09-24 08:26:00,
2013-09-24 03:31:00,66.9,65.4,29.82,ENE,72,1.0,2.0,95,0.00,,,0.00,WeatherDisplay:10.37,2013-09-24 08:31:00,
2013-09-24 03:36:00,66.9,65.4,29.82,ENE,61,0.1,2.3,95,0.00,,,0.00,WeatherDisplay:10.37,2013-09-24 08:36:00,
2013-09-24 03:41:00,66.9,65.4,29.82,North,360,0.3,2.0,95,0.00,,,0.00,WeatherDisplay:10.37,2013-09-24 08:41:00,
2013-09-24 03:46:00,66.8,65.3,29.82,ENE,57,0.0,1.2,95,0.00,,,0.00,WeatherDisplay:10.37,2013-09-24 08:46:00,
2013-09-24 03:51:00,66.8,65.6,29.82,ENE,62,0.0,1.2,96,0.00,,,0.00,WeatherDisplay:10.37,2013-09-24 08:51:00,
2013-09-24 03:56:00,66.8,65.6,29.82,NNW,340,0.1,3.5,96,0.00,,,0.00,WeatherDisplay:10.37,2013-09-24 08:56:00,
2013-09-24 04:01:00,66.8,65.6,29.82,NNW,340,0.0,0.0,96,0.00,,,0.00,WeatherDisplay:10.37,2013-09-24 09:01:00,
2013-09-24 04:06:00,66.8,65.6,29.82,ENE,70,0.6,3.5,96,0.00,,,0.00,WeatherDisplay:10.37,2013-09-24 09:06:00,
2013-09-24 04:11:00,66.6,65.4,29.82,NE,54,1.6,3.5,96,0.00,,,0.00,WeatherDisplay:10.37,2013-09-24 09:11:00,
2013-09-24 04:16:00,66.6,65.4,29.82,NE,47,0.6,3.5,96,0.00,,,0.00,WeatherDisplay:10.37,2013-09-24 09:16:00,
2013-09-24 04:21:00,66.6,65.4,29.82,NE,47,0.0,1.2,96,0.00,,,0.00,WeatherDisplay:10.37,2013-09-24 09:21:00,
2013-09-24 04:26:00,66.6,65.4,29.82,North,355,0.0,0.0,96,0.00,,,0.00,WeatherDisplay:10.37,2013-09-24 09:26:00,
2013-09-24 04:31:00,66.6,65.4,29.83,NE,39,0.0,0.0,96,0.00,,,0.00,WeatherDisplay:10.37,2013-09-24 09:31:00,
2013-09-24 04:36:00,66.6,65.4,29.83,NE,39,0.0,0.0,96,0.00,,,0.00,WeatherDisplay:10.37,2013-09-24 09:36:00,
2013-09-24 04:41:00,66.6,65.4,29.83,ENE,60,0.2,3.5,96,0.00,,,0.00,WeatherDisplay:10.37,2013-09-24 09:41:00,
2013-09-24 04:46:00,66.6,65.7,29.83,ENE,60,0.5,2.0,97,0.00,,,0.00,WeatherDisplay:10.37,2013-09-24 09:46:00,
2013-09-24 04:51:00,66.4,65.2,29.83,ENE,78,0.1,4.6,96,0.00,,,0.00,WeatherDisplay:10.37,2013-09-24 09:51:00,
2013-09-24 04:56:00,66.4,65.5,29.83,NNE,16,0.0,0.0,97,0.00,,,0.00,WeatherDisplay:10.37,2013-09-24 09:56:00,
2013-09-24 05:01:00,66.4,65.5,29.82,ENE,74,0.0,3.5,97,0.00,,,0.00,WeatherDisplay:10.37,2013-09-24 10:01:00,
2013-09-24 05:06:00,66.4,65.5,29.82,ENE,63,0.0,3.5,97,0.00,,,0.00,WeatherDisplay:10.37,2013-09-24 10:06:00,
2013-09-24 05:11:00,66.4,65.5,29.82,ENE,72,1.2,2.0,97,0.00,,,0.00,WeatherDisplay:10.37,2013-09-24 10:11:00,
2013-09-24 05:16:00,66.4,65.5,29.82,NE,43,0.6,0.0,97,0.00,,,0.00,WeatherDisplay:10.37,2013-09-24 10:16:00,
2013-09-24 05:21:00,66.4,65.5,29.82,ENE,75,0.0,0.0,97,0.00,,,0.00,WeatherDisplay:10.37,2013-09-24 10:21:00,
2013-09-24 05:26:00,66.4,65.5,29.82,NE,44,0.0,0.0,97,0.00,,,0.00,WeatherDisplay:10.37,2013-09-24 10:26:00,
2013-09-24 05:31:00,66.3,65.4,29.82,East,90,2.7,6.9,97,0.00,,,0.00,WeatherDisplay:10.37,2013-09-24 10:31:00,
2013-09-24 05:36:00,66.3,65.4,29.82,ENE,59,2.1,3.5,97,0.00,,,0.00,WeatherDisplay:10.37,2013-09-24 10:36:00,
2013-09-24 05:41:00,66.3,65.4,29.82,SSE,163,1.5,3.0,97,0.00,,,0.00,WeatherDisplay:10.37,2013-09-24 10:41:00,
2013-09-24 05:46:00,66.3,65.4,29.83,SSE,150,0.0,0.0,97,0.00,,,0.00,WeatherDisplay:10.37,2013-09-24 10:46:00,
2013-09-24 05:51:00,66.3,65.4,29.83,NNE,32,0.3,3.0,97,0.00,,,0.00,WeatherDisplay:10.37,2013-09-24 10:51:00,
2013-09-24 05:56:00,66.3,65.4,29.83,ENE,61,0.0,0.0,97,0.00,,,0.00,WeatherDisplay:10.37,2013-09-24 10:56:00,
2013-09-24 06:01:00,66.3,65.4,29.83,ENE,67,1.8,5.0,97,0.00,,,0.00,WeatherDisplay:10.37,2013-09-24 11:01:00,
2013-09-24 06:07:00,66.3,65.4,29.83,NE,45,0.0,1.2,97,0.00,,,0.00,WeatherDisplay:10.37,2013-09-24 11:07:00,
2013-09-24 06:12:00,66.3,65.4,29.83,ENE,71,0.1,4.6,97,0.00,,,0.00,WeatherDisplay:10.37,2013-09-24 11:12:00,
2013-09-24 06:17:00,66.3,65.7,29.83,WSW,248,0.1,1.0,98,0.00,,,0.00,WeatherDisplay:10.37,2013-09-24 11:17:00,
2013-09-24 06:22:00,66.3,65.7,29.83,WSW,249,0.0,0.0,98,0.00,,,0.00,WeatherDisplay:10.37,2013-09-24 11:22:00,
2013-09-24 06:27:00,66.3,65.7,29.83,ENE,57,0.2,3.5,98,0.00,,,0.00,WeatherDisplay:10.37,2013-09-24 11:27:00,
2013-09-24 06:32:00,66.3,65.7,29.83,East,81,0.8,5.0,98,0.00,,,0.00,WeatherDisplay:10.37,2013-09-24 11:32:00,
2013-09-24 06:37:00,66.3,65.7,29.83,East,87,0.0,4.6,98,0.00,,,0.00,WeatherDisplay:10.37,2013-09-24 11:37:00,
2013-09-24 06:42:00,66.3,65.7,29.83,ENE,71,0.0,0.0,98,0.00,,,0.00,WeatherDisplay:10.37,2013-09-24 11:42:00,
2013-09-24 06:47:00,66.3,65.7,29.83,ENE,61,0.0,3.5,98,0.00,,,0.00,WeatherDisplay:10.37,2013-09-24 11:47:00,
2013-09-24 06:52:00,66.3,65.7,29.83,ENE,75,0.6,3.5,98,0.00,,,0.00,WeatherDisplay:10.37,2013-09-24 11:52:00,
2013-09-24 06:57:00,66.3,65.7,29.83,ENE,64,0.0,1.2,98,0.00,,,0.00,WeatherDisplay:10.37,2013-09-24 11:57:00,
2013-09-24 07:02:00,66.3,65.7,29.82,NE,49,0.5,3.5,98,0.00,,,0.00,WeatherDisplay:10.37,2013-09-24 12:02:00,
2013-09-24 07:07:00,66.3,65.7,29.82,ENE,65,0.1,1.2,98,0.00,,,0.00,WeatherDisplay:10.37,2013-09-24 12:07:00,
2013-09-24 07:12:00,66.3,65.7,29.82,ENE,65,0.0,0.0,98,0.00,,,0.00,WeatherDisplay:10.37,2013-09-24 12:12:00,
2013-09-24 07:17:00,66.3,65.7,29.82,East,79,0.0,0.0,98,0.00,,,0.00,WeatherDisplay:10.37,2013-09-24 12:17:00,
2013-09-24 07:22:00,66.3,65.7,29.82,ENE,62,1.1,3.5,98,0.00,,,0.00,WeatherDisplay:10.37,2013-09-24 12:22:00,
2013-09-24 07:27:00,66.3,65.7,29.82,NE,56,0.9,3.5,98,0.00,,,0.00,WeatherDisplay:10.37,2013-09-24 12:27:00,
2013-09-24 07:32:00,66.4,65.8,29.82,NE,53,0.5,4.6,98,0.00,,,0.00,WeatherDisplay:10.37,2013-09-24 12:32:00,
2013-09-24 07:37:00,66.4,65.8,29.82,NE,53,0.0,0.0,98,0.00,,,0.00,WeatherDisplay:10.37,2013-09-24 12:37:00,
2013-09-24 07:42:00,66.4,65.8,29.82,East,88,1.9,4.6,98,0.00,,,0.00,WeatherDisplay:10.37,2013-09-24 12:42:00,
2013-09-24 07:47:00,66.4,65.8,29.82,East,79,0.0,1.2,98,0.00,,,0.00,WeatherDisplay:10.37,2013-09-24 12:47:00,
2013-09-24 07:52:00,66.4,65.8,29.82,ENE,67,1.8,3.5,98,0.00,,,0.00,WeatherDisplay:10.37,2013-09-24 12:52:00,
2013-09-24 07:57:00,66.4,65.8,29.82,ENE,67,0.0,1.0,98,0.00,,,0.00,WeatherDisplay:10.37,2013-09-24 12:57:00,
2013-09-24 08:02:00,66.4,65.8,29.82,NNE,32,0.0,3.5,98,0.00,,,0.00,WeatherDisplay:10.37,2013-09-24 13:02:00,
2013-09-24 08:07:00,66.6,66.0,29.82,NNE,22,0.6,6.9,98,0.00,,,0.00,WeatherDisplay:10.37,2013-09-24 13:07:00,
2013-09-24 08:12:00,66.6,66.0,29.82,ESE,111,1.1,5.8,98,0.00,,,0.00,WeatherDisplay:10.37,2013-09-24 13:12:00,
2013-09-24 08:17:00,66.6,66.0,29.82,NE,55,0.9,3.5,98,0.00,,,0.00,WeatherDisplay:10.37,2013-09-24 13:17:00,
2013-09-24 08:22:00,66.6,66.0,29.82,NE,53,0.7,4.0,98,0.00,,,0.00,WeatherDisplay:10.37,2013-09-24 13:22:00,
2013-09-24 08:27:00,66.6,66.0,29.82,NNE,22,0.7,9.2,98,0.00,,,0.00,WeatherDisplay:10.37,2013-09-24 13:27:00,
2013-09-24 08:32:00,66.6,66.0,29.82,ENE,76,1.4,3.5,98,0.00,,,0.00,WeatherDisplay:10.37,2013-09-24 13:32:00,
2013-09-24 08:37:00,66.8,66.2,29.82,ENE,76,0.7,2.3,98,0.00,,,0.00,WeatherDisplay:10.37,2013-09-24 13:37:00,
2013-09-24 08:42:00,66.8,66.2,29.82,ENE,78,2.7,6.9,98,0.00,,,0.00,WeatherDisplay:10.37,2013-09-24 13:42:00,
2013-09-24 08:47:00,66.8,66.2,29.82,East,88,0.1,1.2,98,0.00,,,0.00,WeatherDisplay:10.37,2013-09-24 13:47:00,
2013-09-24 08:52:00,66.9,66.3,29.82,East,94,3.2,5.0,98,0.00,,,0.00,WeatherDisplay:10.37,2013-09-24 13:52:00,
2013-09-24 08:57:00,66.9,66.3,29.82,ENE,71,1.9,5.8,98,0.00,,,0.00,WeatherDisplay:10.37,2013-09-24 13:57:00,
2013-09-24 09:02:00,66.9,66.3,29.82,NE,54,0.1,4.6,98,0.00,,,0.00,WeatherDisplay:10.37,2013-09-24 14:02:00,
2013-09-24 09:07:00,67.1,66.5,29.82,ENE,65,0.5,4.6,98,0.00,,,0.00,WeatherDisplay:10.37,2013-09-24 14:07:00,
2013-09-24 09:12:00,67.3,66.7,29.82,ENE,70,0.0,1.0,98,0.00,,,0.00,WeatherDisplay:10.37,2013-09-24 14:12:00,
2013-09-24 09:17:00,67.3,66.7,29.82,NE,35,0.2,1.2,98,0.00,,,0.00,WeatherDisplay:10.37,2013-09-24 14:17:00,
2013-09-24 09:22:00,67.1,66.5,29.82,NE,53,0.0,0.0,98,0.00,,,0.00,WeatherDisplay:10.37,2013-09-24 14:22:00,
2013-09-24 09:27:00,67.3,66.7,29.82,NE,53,0.3,0.0,98,0.00,,,0.00,WeatherDisplay:10.37,2013-09-24 14:27:00,
2013-09-24 09:32:00,67.3,66.7,29.82,ENE,61,0.6,3.5,98,0.00,,,0.00,WeatherDisplay:10.37,2013-09-24 14:32:00,
2013-09-24 09:37:00,67.3,66.7,29.82,ENE,76,0.0,2.3,98,0.00,,,0.00,WeatherDisplay:10.37,2013-09-24 14:37:00,
2013-09-24 09:42:00,67.3,66.7,29.82,NE,47,0.1,3.5,98,0.00,,,0.00,WeatherDisplay:10.37,2013-09-24 14:42:00,
2013-09-24 09:47:00,67.4,66.8,29.83,NE,47,0.0,1.0,98,0.00,,,0.00,WeatherDisplay:10.37,2013-09-24 14:47:00,
2013-09-24 09:52:00,67.6,67.0,29.83,NE,47,0.0,0.0,98,0.00,,,0.00,WeatherDisplay:10.37,2013-09-24 14:52:00,
2013-09-24 09:57:00,67.6,67.0,29.83,East,83,1.7,2.0,98,0.00,,,0.00,WeatherDisplay:10.37,2013-09-24 14:57:00,
2013-09-24 10:02:00,67.6,67.0,29.83,East,81,0.0,2.3,98,0.00,,,0.00,WeatherDisplay:10.37,2013-09-24 15:02:00,
2013-09-24 10:07:00,67.8,67.2,29.83,NE,39,2.1,3.5,98,0.00,,,0.00,WeatherDisplay:10.37,2013-09-24 15:07:00,
2013-09-24 10:12:00,67.6,67.0,29.83,ENE,59,1.1,3.0,98,0.00,,,0.00,WeatherDisplay:10.37,2013-09-24 15:12:00,
2013-09-24 10:17:00,67.6,67.0,29.83,ENE,61,2.6,5.0,98,0.00,,,0.00,WeatherDisplay:10.37,2013-09-24 15:17:00,
2013-09-24 10:22:00,67.6,67.0,29.83,NE,48,1.0,3.5,98,0.00,,,0.00,WeatherDisplay:10.37,2013-09-24 15:22:00,
2013-09-24 10:27:00,67.8,67.2,29.83,ENE,63,0.8,3.5,98,0.00,,,0.00,WeatherDisplay:10.37,2013-09-24 15:27:00,
2013-09-24 10:32:00,67.8,67.2,29.82,ENE,74,3.9,3.9,98,0.00,,,0.00,WeatherDisplay:10.37,2013-09-24 15:32:00,
2013-09-24 10:37:00,67.9,67.3,29.82,NE,38,0.7,3.5,98,0.00,,,0.00,WeatherDisplay:10.37,2013-09-24 15:37:00,
2013-09-24 10:42:00,67.9,67.3,29.82,East,82,4.9,5.8,98,0.00,,,0.00,WeatherDisplay:10.37,2013-09-24 15:42:00,
2013-09-24 10:47:00,68.1,67.5,29.82,NNE,32,1.1,4.6,98,0.00,,,0.00,WeatherDisplay:10.37,2013-09-24 15:47:00,
2013-09-24 10:52:00,68.1,67.2,29.82,NE,55,3.2,4.0,97,0.00,,,0.00,WeatherDisplay:10.37,2013-09-24 15:52:00,
2013-09-24 10:57:00,68.1,67.2,29.82,NE,56,2.4,6.9,97,0.00,,,0.00,WeatherDisplay:10.37,2013-09-24 15:57:00,
2013-09-24 11:02:00,68.1,67.2,29.82,ENE,65,2.6,6.9,97,0.00,,,0.00,WeatherDisplay:10.37,2013-09-24 16:02:00,
2013-09-24 11:07:00,68.4,67.5,29.82,ENE,73,1.2,5.8,97,0.00,,,0.00,WeatherDisplay:10.37,2013-09-24 16:07:00,
2013-09-24 11:13:00,68.4,67.5,29.82,ENE,67,0.0,3.5,97,0.00,,,0.00,WeatherDisplay:10.37,2013-09-24 16:13:00,
2013-09-24 11:18:00,68.6,67.7,29.82,East,84,0.3,5.0,97,0.00,,,0.00,WeatherDisplay:10.37,2013-09-24 16:18:00,
2013-09-24 11:23:00,68.6,67.7,29.82,NE,38,2.0,7.0,97,0.00,,,0.00,WeatherDisplay:10.37,2013-09-24 16:23:00,
2013-09-24 11:28:00,68.8,67.9,29.82,NE,34,1.8,3.5,97,0.00,,,0.00,WeatherDisplay:10.37,2013-09-24 16:28:00,
2013-09-24 11:33:00,68.6,67.4,29.82,NE,44,1.2,5.8,96,0.00,,,0.00,WeatherDisplay:10.37,2013-09-24 16:33:00,
2013-09-24 11:38:00,68.6,67.4,29.82,ENE,74,2.6,4.6,96,0.00,,,0.00,WeatherDisplay:10.37,2013-09-24 16:38:00,
2013-09-24 11:43:00,68.8,67.6,29.82,ENE,72,0.0,1.2,96,0.00,,,0.00,WeatherDisplay:10.37,2013-09-24 16:43:00,
2013-09-24 11:48:00,68.9,67.7,29.81,East,98,4.1,5.0,96,0.00,,,0.00,WeatherDisplay:10.37,2013-09-24 16:48:00,
2013-09-24 11:53:00,68.8,67.6,29.81,East,85,2.6,4.6,96,0.00,,,0.00,WeatherDisplay:10.37,2013-09-24 16:53:00,
2013-09-24 11:58:00,68.8,67.6,29.81,East,88,2.2,3.5,96,0.00,,,0.00,WeatherDisplay:10.37,2013-09-24 16:58:00,
2013-09-24 12:03:00,68.9,67.7,29.81,North,355,0.1,2.3,96,0.00,,,0.00,WeatherDisplay:10.37,2013-09-24 17:03:00,
2013-09-24 12:08:00,69.1,67.9,29.81,ENE,66,0.9,3.5,96,0.00,,,0.00,WeatherDisplay:10.37,2013-09-24 17:08:00,
2013-09-24 12:13:00,69.1,67.6,29.81,ENE,69,2.9,3.5,95,0.00,,,0.00,WeatherDisplay:10.37,2013-09-24 17:13:00,
2013-09-24 12:18:00,69.3,67.8,29.81,East,92,1.5,4.6,95,0.00,,,0.00,WeatherDisplay:10.37,2013-09-24 17:18:00,
2013-09-24 12:23:00,69.4,67.9,29.81,ENE,59,2.6,4.6,95,0.00,,,0.00,WeatherDisplay:10.37,2013-09-24 17:23:00,
2013-09-24 12:28:00,69.6,68.1,29.81,NNE,13,2.0,2.0,95,0.00,,,0.00,WeatherDisplay:10.37,2013-09-24 17:28:00,
2013-09-24 12:33:00,69.8,68.0,29.81,NE,36,2.2,5.8,94,0.00,,,0.00,WeatherDisplay:10.37,2013-09-24 17:33:00,
2013-09-24 12:38:00,69.9,68.1,29.81,NE,48,0.4,2.0,94,0.00,,,0.00,WeatherDisplay:10.37,2013-09-24 17:38:00,
2013-09-24 12:43:00,69.9,67.8,29.81,NE,54,2.4,3.5,93,0.00,,,0.00,WeatherDisplay:10.37,2013-09-24 17:43:00,
2013-09-24 12:48:00,69.9,67.8,29.81,NW,316,0.0,1.2,93,0.00,,,0.00,WeatherDisplay:10.37,2013-09-24 17:48:00,
2013-09-24 12:53:00,70.1,68.0,29.81,NW,316,0.0,0.0,93,0.00,,,0.00,WeatherDisplay:10.37,2013-09-24 17:53:00,
2013-09-24 12:58:00,70.3,67.9,29.81,NE,35,0.0,1.0,92,0.00,,,0.00,WeatherDisplay:10.37,2013-09-24 17:58:00,
2013-09-24 13:03:00,70.4,68.0,29.81,NE,38,0.0,0.0,92,0.00,,,0.00,WeatherDisplay:10.37,2013-09-24 18:03:00,
2013-09-24 13:08:00,70.4,68.0,29.81,NE,42,0.0,3.5,92,0.00,,,0.00,WeatherDisplay:10.37,2013-09-24 18:08:00,
2013-09-24 13:13:00,70.3,67.9,29.81,ENE,67,2.7,3.5,92,0.00,,,0.00,WeatherDisplay:10.37,2013-09-24 18:13:00,
2013-09-24 13:18:00,70.4,68.0,29.80,East,84,0.7,7.0,92,0.00,,,0.00,WeatherDisplay:10.37,2013-09-24 18:18:00,
2013-09-24 13:23:00,70.3,67.9,29.80,East,79,0.6,3.0,92,0.00,,,0.00,WeatherDisplay:10.37,2013-09-24 18:23:00,
2013-09-24 13:28:00,70.3,67.9,29.80,NE,37,0.4,4.6,92,0.00,,,0.00,WeatherDisplay:10.37,2013-09-24 18:28:00,
2013-09-24 13:33:00,70.3,67.9,29.79,NE,37,1.0,2.0,92,0.00,,,0.00,WeatherDisplay:10.37,2013-09-24 18:33:00,
2013-09-24 13:38:00,70.3,67.9,29.79,East,101,1.5,4.6,92,0.00,,,0.00,WeatherDisplay:10.37,2013-09-24 18:38:00,
2013-09-24 13:43:00,70.3,67.9,29.79,ENE,65,0.9,4.6,92,0.00,,,0.00,WeatherDisplay:10.37,2013-09-24 18:43:00,
2013-09-24 13:48:00,70.3,67.9,29.78,ENE,67,2.2,4.6,92,0.00,,,0.00,WeatherDisplay:10.37,2013-09-24 18:48:00,
2013-09-24 13:53:00,70.3,67.9,29.78,ENE,68,3.0,4.0,92,0.00,,,0.00,WeatherDisplay:10.37,2013-09-24 18:53:00,
2013-09-24 13:58:00,70.3,67.9,29.78,ENE,73,1.4,3.5,92,0.00,,,0.00,WeatherDisplay:10.37,2013-09-24 18:58:00,
2013-09-24 14:03:00,70.4,68.0,29.79,NE,55,0.0,0.0,92,0.00,,,0.00,WeatherDisplay:10.37,2013-09-24 19:03:00,
2013-09-24 14:08:00,70.8,68.4,29.79,NNE,27,0.0,0.0,92,0.00,,,0.00,WeatherDisplay:10.37,2013-09-24 19:08:00,
2013-09-24 14:13:00,70.6,67.8,29.79,ENE,71,1.1,8.1,91,0.00,,,0.00,WeatherDisplay:10.37,2013-09-24 19:13:00,
2013-09-24 14:18:00,70.6,67.8,29.78,NE,42,0.1,1.2,91,0.00,,,0.00,WeatherDisplay:10.37,2013-09-24 19:18:00,
2013-09-24 14:23:00,70.6,67.8,29.78,NE,46,0.4,3.5,91,0.00,,,0.00,WeatherDisplay:10.37,2013-09-24 19:23:00,
2013-09-24 14:28:00,70.4,68.0,29.78,ENE,69,0.0,0.0,92,0.00,,,0.00,WeatherDisplay:10.37,2013-09-24 19:28:00,
2013-09-24 14:33:00,70.6,68.2,29.77,ENE,63,0.0,1.2,92,0.00,,,0.00,WeatherDisplay:10.37,2013-09-24 19:33:00,
2013-09-24 14:38:00,70.8,68.4,29.77,NE,37,1.2,0.0,92,0.00,,,0.00,WeatherDisplay:10.37,2013-09-24 19:38:00,
2013-09-24 14:43:00,70.6,67.8,29.77,NE,49,2.5,3.5,91,0.00,,,0.00,WeatherDisplay:10.37,2013-09-24 19:43:00,
2013-09-24 14:48:00,70.4,68.0,29.76,North,360,2.8,4.0,92,0.00,,,0.00,WeatherDisplay:10.37,2013-09-24 19:48:00,
2013-09-24 14:53:00,70.6,68.2,29.76,NE,44,0.1,4.6,92,0.00,,,0.00,WeatherDisplay:10.37,2013-09-24 19:53:00,
2013-09-24 14:58:00,70.6,68.2,29.76,NE,46,0.0,0.0,92,0.00,,,0.00,WeatherDisplay:10.37,2013-09-24 19:58:00,
2013-09-24 15:03:00,70.6,67.8,29.76,NE,53,0.1,3.5,91,0.00,,,0.00,WeatherDisplay:10.37,2013-09-24 20:03:00,
2013-09-24 15:08:00,70.6,68.2,29.76,NE,50,0.0,3.5,92,0.00,,,0.00,WeatherDisplay:10.37,2013-09-24 20:08:00,
2013-09-24 15:13:00,70.6,68.2,29.76,NE,50,0.0,1.2,92,0.00,,,0.00,WeatherDisplay:10.37,2013-09-24 20:13:00,
2013-09-24 15:18:00,70.6,68.2,29.76,NE,44,1.3,2.3,92,0.00,,,0.00,WeatherDisplay:10.37,2013-09-24 20:18:00,
2013-09-24 15:23:00,70.6,68.2,29.76,NE,44,0.0,0.0,92,0.00,,,0.00,WeatherDisplay:10.37,2013-09-24 20:23:00,
2013-09-24 15:28:00,70.6,68.2,29.76,NE,55,0.0,0.0,92,0.00,,,0.00,WeatherDisplay:10.37,2013-09-24 20:28:00,
2013-09-24 15:33:00,70.6,68.2,29.77,NE,55,0.0,1.0,92,0.00,,,0.00,WeatherDisplay:10.37,2013-09-24 20:33:00,
2013-09-24 15:38:00,70.6,68.2,29.77,SSW,194,0.0,0.0,92,0.00,,,0.00,WeatherDisplay:10.37,2013-09-24 20:38:00,
2013-09-24 15:43:00,70.6,68.2,29.77,SSW,207,0.0,0.0,92,0.00,,,0.00,WeatherDisplay:10.37,2013-09-24 20:43:00,
2013-09-24 15:48:00,70.4,68.0,29.78,WSW,246,0.6,3.5,92,0.00,,,0.00,WeatherDisplay:10.37,2013-09-24 20:48:00,
2013-09-24 15:53:00,70.4,68.3,29.78,WSW,246,0.0,0.0,93,0.01,RA,,0.01,WeatherDisplay:10.37,2013-09-24 20:53:00,
2013-09-24 15:58:00,70.3,68.2,29.78,NNE,15,0.4,0.0,93,0.01,RA,,0.01,WeatherDisplay:10.37,2013-09-24 20:58:00,
2013-09-24 16:03:00,69.9,67.8,29.78,NNE,22,0.0,0.0,93,0.01,,,0.01,WeatherDisplay:10.37,2013-09-24 21:03:00,
2013-09-24 16:08:00,69.8,68.0,29.78,ENE,57,0.0,0.0,94,0.03,RA,,0.03,WeatherDisplay:10.37,2013-09-24 21:08:00,
2013-09-24 16:13:00,69.6,67.8,29.78,NE,56,0.0,0.0,94,0.04,RA,,0.05,WeatherDisplay:10.37,2013-09-24 21:13:00,
2013-09-24 16:18:00,69.4,67.6,29.77,ENE,57,0.0,0.0,94,0.06,RA,,0.06,WeatherDisplay:10.37,2013-09-24 21:18:00,
2013-09-24 16:23:00,69.4,67.9,29.77,East,87,1.4,3.5,95,0.07,RA,,0.07,WeatherDisplay:10.37,2013-09-24 21:23:00,
2013-09-24 16:28:00,69.3,67.8,29.77,East,80,0.0,3.5,95,0.08,RA,,0.09,WeatherDisplay:10.37,2013-09-24 21:28:00,
2013-09-24 16:33:00,69.3,68.1,29.76,NNE,25,1.9,3.5,96,0.10,RA,,0.10,WeatherDisplay:10.37,2013-09-24 21:33:00,
2013-09-24 16:38:00,69.1,67.9,29.76,NE,40,0.0,1.2,96,0.11,RA,,0.11,WeatherDisplay:10.37,2013-09-24 21:38:00,
2013-09-24 16:43:00,69.1,67.9,29.76,NE,49,2.2,5.8,96,0.11,RA,,0.11,WeatherDisplay:10.37,2013-09-24 21:43:00,
2013-09-24 16:48:00,68.9,67.7,29.75,ENE,63,1.8,4.6,96,0.11,,,0.11,WeatherDisplay:10.37,2013-09-24 21:48:00,
2013-09-24 16:53:00,68.8,67.6,29.75,ESE,114,0.0,2.3,96,0.10,,,0.11,WeatherDisplay:10.37,2013-09-24 21:53:00,
2013-09-24 16:58:00,68.8,67.6,29.75,NE,56,0.0,1.2,96,0.10,,,0.11,WeatherDisplay:10.37,2013-09-24 21:58:00,
2013-09-24 17:03:00,68.8,67.6,29.73,East,92,0.1,1.2,96,0.10,,,0.11,WeatherDisplay:10.37,2013-09-24 22:03:00,
2013-09-24 17:08:00,68.8,67.6,29.73,ENE,76,0.0,1.2,96,0.08,,,0.11,WeatherDisplay:10.37,2013-09-24 22:08:00,
2013-09-24 17:13:00,68.6,67.7,29.73,NNE,16,0.5,0.0,97,0.07,,,0.11,WeatherDisplay:10.37,2013-09-24 22:13:00,
2013-09-24 17:18:00,68.6,67.7,29.68,NNE,26,0.5,4.6,97,0.05,,,0.11,WeatherDisplay:10.37,2013-09-24 22:18:00,
2013-09-24 17:23:00,68.4,67.5,29.68,WNW,286,0.5,3.5,97,0.04,,,0.11,WeatherDisplay:10.37,2013-09-24 22:23:00,
2013-09-24 17:28:00,68.4,67.5,29.68,North,355,1.0,4.6,97,0.03,,,0.11,WeatherDisplay:10.37,2013-09-24 22:28:00,
2013-09-24 17:33:00,68.4,67.5,29.70,NNE,33,0.2,4.6,97,0.01,,,0.11,WeatherDisplay:10.37,2013-09-24 22:33:00,
2013-09-24 17:38:00,68.4,67.5,29.70,NNE,12,1.6,9.2,97,0.00,,,0.11,WeatherDisplay:10.37,2013-09-24 22:38:00,
2013-09-24 17:43:00,68.4,67.5,29.70,South,175,0.0,0.0,97,0.00,,,0.12,WeatherDisplay:10.37,2013-09-24 22:43:00,
2013-09-24 17:48:00,68.3,67.4,29.66,East,84,3.3,10.4,97,0.01,RA,,0.12,WeatherDisplay:10.37,2013-09-24 22:48:00,
2013-09-24 17:53:00,68.1,67.2,29.66,WSW,247,2.8,5.8,97,0.01,RA,,0.12,WeatherDisplay:10.37,2013-09-24 22:53:00,
2013-09-24 17:58:00,68.1,67.2,29.66,NNE,27,0.3,6.9,97,0.01,,,0.12,WeatherDisplay:10.37,2013-09-24 22:58:00,
2013-09-24 18:03:00,68.1,67.2,29.68,NNW,327,0.0,1.2,97,0.01,,,0.12,WeatherDisplay:10.37,2013-09-24 23:03:00,
2013-09-24 18:08:00,68.1,67.2,29.68,North,360,0.1,1.2,97,0.01,,,0.12,WeatherDisplay:10.37,2013-09-24 23:08:00,
2013-09-24 18:13:00,68.1,67.2,29.68,East,89,1.5,3.0,97,0.01,,,0.12,WeatherDisplay:10.37,2013-09-24 23:13:00,
2013-09-24 18:18:00,68.1,67.2,29.71,NE,42,1.2,3.5,97,0.01,,,0.12,WeatherDisplay:10.37,2013-09-24 23:18:00,
2013-09-24 18:23:00,68.1,67.5,29.71,NE,49,0.2,3.5,98,0.01,,,0.12,WeatherDisplay:10.37,2013-09-24 23:23:00,
2013-09-24 18:28:00,68.3,67.7,29.71,ENE,64,0.0,0.0,98,0.01,,,0.12,WeatherDisplay:10.37,2013-09-24 23:28:00,
2013-09-24 18:33:00,68.3,67.7,29.71,ENE,64,0.0,0.0,98,0.01,,,0.12,WeatherDisplay:10.37,2013-09-24 23:33:00,
2013-09-24 18:38:00,68.3,67.7,29.71,NNE,28,0.0,0.0,98,0.01,,,0.12,WeatherDisplay:10.37,2013-09-24 23:38:00,
2013-09-24 18:43:00,68.3,67.7,29.71,NW,321,0.0,1.2,98,0.01,,,0.12,WeatherDisplay:10.37,2013-09-24 23:43:00,
2013-09-24 18:48:00,68.3,67.7,29.72,ENE,78,0.0,2.3,98,0.00,,,0.12,WeatherDisplay:10.37,2013-09-24 23:48:00,
2013-09-24 18:53:00,68.3,67.7,29.72,ENE,69,1.4,5.0,98,0.00,,,0.12,WeatherDisplay:10.37,2013-09-24 23:53:00,
2013-09-24 18:58:00,68.3,67.7,29.72,ENE,60,0.0,1.2,98,0.00,,,0.12,WeatherDisplay:10.37,2013-09-24 23:58:00,
2013-09-24 19:03:00,68.3,67.7,29.71,NNE,23,0.0,0.0,98,0.00,,,0.12,WeatherDisplay:10.37,2013-09-25 00:03:00,
2013-09-24 19:08:00,68.3,67.7,29.71,NNE,30,0.0,1.2,98,0.00,,,0.12,WeatherDisplay:10.37,2013-09-25 00:08:00,
2013-09-24 19:13:00,68.3,67.7,29.71,NW,321,0.0,1.2,98,0.00,,,0.12,WeatherDisplay:10.37,2013-09-25 00:13:00,
2013-09-24 19:18:00,68.3,67.7,29.71,NE,51,0.1,2.3,98,0.00,,,0.12,WeatherDisplay:10.37,2013-09-25 00:18:00,
2013-09-24 19:23:00,68.3,67.7,29.71,ENE,78,0.1,3.5,98,0.00,,,0.12,WeatherDisplay:10.37,2013-09-25 00:23:00,
2013-09-24 19:28:00,68.1,67.5,29.71,NE,44,0.5,0.0,98,0.00,,,0.12,WeatherDisplay:10.37,2013-09-25 00:28:00,
2013-09-24 19:33:00,68.1,67.5,29.71,NE,42,0.7,3.5,98,0.00,,,0.12,WeatherDisplay:10.37,2013-09-25 00:33:00,
2013-09-24 19:38:00,68.1,67.5,29.71,NNE,32,0.0,3.5,98,0.00,,,0.12,WeatherDisplay:10.37,2013-09-25 00:38:00,
2013-09-24 19:43:00,68.1,67.5,29.71,NNE,32,0.0,0.0,98,0.00,,,0.12,WeatherDisplay:10.37,2013-09-25 00:43:00,
2013-09-24 19:48:00,68.1,67.5,29.72,NE,52,0.4,4.0,98,0.00,,,0.12,WeatherDisplay:10.37,2013-09-25 00:48:00,
2013-09-24 19:53:00,68.1,67.5,29.72,NE,40,0.1,0.0,98,0.00,,,0.12,WeatherDisplay:10.37,2013-09-25 00:53:00,
2013-09-24 19:58:00,68.1,67.5,29.72,NE,40,0.0,0.0,98,0.00,,,0.12,WeatherDisplay:10.37,2013-09-25 00:58:00,
2013-09-24 20:03:00,68.1,67.5,29.73,ENE,57,0.0,3.5,98,0.00,,,0.12,WeatherDisplay:10.37,2013-09-25 01:03:00,
2013-09-24 20:08:00,68.1,67.5,29.73,NE,39,2.3,3.5,98,0.00,,,0.12,WeatherDisplay:10.37,2013-09-25 01:08:00,
2013-09-24 20:13:00,68.1,67.5,29.73,ENE,68,0.3,3.5,98,0.00,,,0.12,WeatherDisplay:10.37,2013-09-25 01:13:00,
2013-09-24 20:18:00,67.9,67.3,29.72,ENE,69,0.0,0.0,98,0.00,,,0.12,WeatherDisplay:10.37,2013-09-25 01:18:00,
2013-09-24 20:23:00,67.9,67.3,29.72,NE,49,1.0,3.5,98,0.00,,,0.12,WeatherDisplay:10.37,2013-09-25 01:23:00,
2013-09-24 20:28:00,67.9,67.3,29.72,NE,52,0.7,3.5,98,0.00,,,0.12,WeatherDisplay:10.37,2013-09-25 01:28:00,
2013-09-24 20:33:00,67.9,67.3,29.72,North,360,0.0,4.6,98,0.00,,,0.12,WeatherDisplay:10.37,2013-09-25 01:33:00,
2013-09-24 20:38:00,67.9,67.3,29.72,North,355,4.2,5.8,98,0.00,,,0.12,WeatherDisplay:10.37,2013-09-25 01:38:00,
2013-09-24 20:43:00,67.8,67.2,29.72,ENE,67,1.5,6.9,98,0.00,,,0.12,WeatherDisplay:10.37,2013-09-25 01:43:00,
2013-09-24 20:48:00,67.6,67.0,29.72,ENE,76,3.1,4.0,98,0.00,,,0.12,WeatherDisplay:10.37,2013-09-25 01:48:00,
2013-09-24 20:53:00,67.4,66.8,29.72,ENE,78,0.2,4.6,98,0.00,,,0.12,WeatherDisplay:10.37,2013-09-25 01:53:00,
2013-09-24 20:58:00,67.4,66.8,29.72,ENE,67,0.8,9.2,98,0.00,,,0.12,WeatherDisplay:10.37,2013-09-25 01:58:00,
2013-09-24 21:03:00,67.4,66.8,29.72,NE,38,0.1,1.0,98,0.00,,,0.12,WeatherDisplay:10.37,2013-09-25 02:03:00,
2013-09-24 21:08:00,67.4,66.8,29.72,ENE,57,1.3,3.5,98,0.00,,,0.12,WeatherDisplay:10.37,2013-09-25 02:08:00,
2013-09-24 21:13:00,67.3,66.7,29.72,ENE,75,0.0,0.0,98,0.00,,,0.12,WeatherDisplay:10.37,2013-09-25 02:13:00,
2013-09-24 21:18:00,67.4,66.8,29.73,ENE,74,0.4,1.2,98,0.00,,,0.12,WeatherDisplay:10.37,2013-09-25 02:18:00,
2013-09-24 21:23:00,67.3,66.7,29.73,ENE,73,1.3,3.0,98,0.00,,,0.12,WeatherDisplay:10.37,2013-09-25 02:23:00,
2013-09-24 21:28:00,67.3,66.7,29.73,NE,43,0.8,3.5,98,0.00,,,0.12,WeatherDisplay:10.37,2013-09-25 02:28:00,
2013-09-24 21:33:00,67.1,66.5,29.74,NE,39,0.4,2.3,98,0.00,,,0.12,WeatherDisplay:10.37,2013-09-25 02:33:00,
2013-09-24 21:38:00,67.1,66.5,29.74,NE,39,0.0,1.2,98,0.00,,,0.12,WeatherDisplay:10.37,2013-09-25 02:38:00,
2013-09-24 21:43:00,66.9,66.3,29.74,East,87,0.4,3.5,98,0.00,,,0.12,WeatherDisplay:10.37,2013-09-25 02:43:00,
2013-09-24 21:48:00,66.8,66.2,29.73,NE,36,0.1,4.6,98,0.00,,,0.12,WeatherDisplay:10.37,2013-09-25 02:48:00,
2013-09-24 21:53:00,66.8,66.2,29.73,East,85,2.3,5.0,98,0.00,,,0.12,WeatherDisplay:10.37,2013-09-25 02:53:00,
2013-09-24 21:58:00,66.6,66.0,29.73,NE,49,3.1,4.6,98,0.00,,,0.12,WeatherDisplay:10.37,2013-09-25 02:58:00,
2013-09-24 22:03:00,66.6,66.0,29.73,ENE,71,2.4,5.8,98,0.00,,,0.12,WeatherDisplay:10.37,2013-09-25 03:03:00,
2013-09-24 22:08:00,66.4,65.8,29.73,NE,56,0.6,4.6,98,0.00,,,0.12,WeatherDisplay:10.37,2013-09-25 03:08:00,
2013-09-24 22:13:00,66.4,65.8,29.73,North,360,0.5,3.5,98,0.00,,,0.12,WeatherDisplay:10.37,2013-09-25 03:13:00,
2013-09-24 22:18:00,66.4,65.8,29.73,NE,36,0.5,3.5,98,0.00,,,0.12,WeatherDisplay:10.37,2013-09-25 03:18:00,
2013-09-24 22:23:00,66.4,65.8,29.73,ENE,69,0.4,3.5,98,0.00,,,0.12,WeatherDisplay:10.37,2013-09-25 03:23:00,
2013-09-24 22:28:00,66.3,65.7,29.73,ESE,102,1.5,5.8,98,0.00,,,0.12,WeatherDisplay:10.37,2013-09-25 03:28:00,
2013-09-24 22:33:00,66.3,65.7,29.73,East,98,0.5,3.5,98,0.00,,,0.12,WeatherDisplay:10.37,2013-09-25 03:33:00,
2013-09-24 22:38:00,66.1,65.5,29.73,North,5,0.4,2.3,98,0.00,,,0.12,WeatherDisplay:10.37,2013-09-25 03:38:00,
2013-09-24 22:43:00,66.1,65.5,29.73,NNE,23,1.3,4.6,98,0.00,,,0.12,WeatherDisplay:10.37,2013-09-25 03:43:00,
2013-09-24 22:48:00,66.1,65.5,29.73,NE,36,0.1,2.3,98,0.00,,,0.12,WeatherDisplay:10.37,2013-09-25 03:48:00,
2013-09-24 22:53:00,66.1,65.5,29.73,North,5,0.5,3.5,98,0.00,,,0.12,WeatherDisplay:10.37,2013-09-25 03:53:00,
2013-09-24 22:58:00,66.1,65.5,29.73,ENE,74,0.3,4.6,98,0.00,,,0.12,WeatherDisplay:10.37,2013-09-25 03:58:00,
2013-09-24 23:01:00,66.0,65.4,29.73,NNE,22,0.8,1.0,98,0.00,,,0.12,WeatherDisplay:10.37,2013-09-25 04:01:00,
2013-09-24 23:06:00,66.0,65.4,29.73,ENE,66,0.3,3.5,98,0.00,,,0.12,WeatherDisplay:10.37,2013-09-25 04:06:00,
2013-09-24 23:11:00,66.0,65.4,29.73,ENE,61,0.4,1.2,98,0.01,RA,,0.13,WeatherDisplay:10.37,2013-09-25 04:11:00,
2013-09-24 23:16:00,66.0,65.4,29.73,NE,36,0.3,1.0,98,0.01,RA,,0.13,WeatherDisplay:10.37,2013-09-25 04:16:00,
2013-09-24 23:21:00,66.0,65.4,29.73,NNE,27,0.1,1.2,98,0.01,,,0.13,WeatherDisplay:10.37,2013-09-25 04:21:00,
2013-09-24 23:26:00,66.0,65.4,29.73,East,92,0.0,2.3,98,0.02,RA,,0.14,WeatherDisplay:10.37,2013-09-25 04:26:00,
2013-09-24 23:31:00,66.0,65.4,29.73,ENE,78,0.1,2.3,98,0.02,RA,,0.14,WeatherDisplay:10.37,2013-09-25 04:31:00,
2013-09-24 23:36:00,66.0,65.4,29.73,ENE,70,0.1,3.5,98,0.02,,,0.14,WeatherDisplay:10.37,2013-09-25 04:36:00,
2013-09-24 23:41:00,66.0,65.4,29.73,ENE,61,0.0,2.3,98,0.02,,,0.14,WeatherDisplay:10.37,2013-09-25 04:41:00,
2013-09-24 23:46:00,66.0,65.7,29.73,NE,50,0.3,1.0,99,0.02,,,0.14,WeatherDisplay:10.37,2013-09-25 04:46:00,
2013-09-24 23:51:00,66.0,65.7,29.73,ENE,69,0.4,1.2,99,0.02,,,0.14,WeatherDisplay:10.37,2013-09-25 04:51:00,
2013-09-24 23:56:00,66.0,65.7,29.73,East,92,1.0,3.0,99,0.02,,,0.14,WeatherDisplay:10.37,2013-09-25 04:56:00,